Time;durP1;ratioP1;P1;durP2;ratioP2;P2;SDS_P1;SDS_P2;PMS_P1;PMS_P2;Temp;Humidity;BMP_temperature;BMP_pressure;BME280_temperature;BME280_humidity;BME280_pressure;Samples;Min_cycle;Max_cycle;Signal;HPM_P1;HPM_P2
2023/05/12 00:02:13;;;;;;;41.67;23.00;;;;;;;11.19;100.00;101786.47;4994798;28;20045;-80
2023/05/12 00:04:40;;;;;;;50.38;23.73;;;;;;;11.19;100.00;101787.38;5006731;28;20044;-81
2023/05/12 00:07:08;;;;;;;48.60;23.92;;;;;;;11.21;100.00;101785.66;4980528;28;20411;-81
2023/05/12 00:09:35;;;;;;;49.85;23.65;;;;;;;11.23;100.00;101783.03;4988050;28;20053;-80
2023/05/12 00:12:04;;;;;;;43.67;22.65;;;;;;;11.24;100.00;101771.59;4994275;28;20405;-81
2023/05/12 00:14:32;;;;;;;39.55;21.33;;;;;;;11.23;100.00;101773.38;4946777;28;20060;-81
2023/05/12 00:16:59;;;;;;;42.70;20.38;;;;;;;11.23;100.00;101775.13;5012574;28;20057;-81
2023/05/12 00:19:26;;;;;;;40.92;19.05;;;;;;;11.23;100.00;101773.38;5010033;28;20052;-80
2023/05/12 00:21:54;;;;;;;40.22;20.30;;;;;;;11.23;100.00;101777.75;5015065;28;20041;-80
2023/05/12 00:24:21;;;;;;;48.22;20.88;;;;;;;11.24;100.00;101775.13;4994241;28;20058;-80
2023/05/12 00:26:48;;;;;;;37.95;19.13;;;;;;;11.24;100.00;101774.25;5012699;28;20045;-81
2023/05/12 00:29:17;;;;;;;38.40;20.25;;;;;;;11.24;100.00;101777.75;4936111;28;20050;-81
2023/05/12 00:31:44;;;;;;;34.40;18.90;;;;;;;11.22;100.00;101771.56;5012022;28;20072;-81
2023/05/12 00:34:11;;;;;;;29.80;17.98;;;;;;;11.20;100.00;101773.31;4993578;28;20038;-80
2023/05/12 00:36:39;;;;;;;32.05;17.92;;;;;;;11.21;100.00;101774.19;4980052;28;20061;-80
2023/05/12 00:39:06;;;;;;;27.38;16.95;;;;;;;11.19;100.00;101782.09;4992942;28;20046;-80
2023/05/12 00:41:34;;;;;;;32.78;18.27;;;;;;;11.20;100.00;101773.31;4977120;28;20054;-80
2023/05/12 00:44:01;;;;;;;32.65;16.75;;;;;;;11.22;100.00;101773.34;4994632;28;20046;-80
2023/05/12 00:46:29;;;;;;;32.30;17.67;;;;;;;11.22;100.00;101775.97;4963934;28;20385;-81
2023/05/12 00:48:58;;;;;;;30.55;17.42;;;;;;;11.22;100.00;101771.56;5008184;28;20061;-81
2023/05/12 00:51:26;;;;;;;26.95;16.70;;;;;;;11.21;100.00;101777.72;4993174;28;20558;-79
2023/05/12 00:53:56;;;;;;;27.17;16.77;;;;;;;11.19;100.00;101770.63;5011537;28;20050;-81
2023/05/12 00:56:24;;;;;;;34.00;18.80;;;;;;;11.16;100.00;101783.81;5007943;28;20098;-80
2023/05/12 00:58:52;;;;;;;33.53;16.85;;;;;;;11.15;100.00;101787.28;4991999;28;20051;-81
2023/05/12 01:01:20;;;;;;;36.83;18.35;;;;;;;11.14;100.00;101782.88;4928174;28;20057;-80
2023/05/12 01:03:52;;;;;;;26.80;17.73;;;;;;;11.14;100.00;101772.34;4992288;28;20043;-81
2023/05/12 01:06:37;;;;;;;37.38;18.50;;;;;;;11.13;100.00;101776.69;4989839;28;20055;-81
2023/05/12 01:09:07;;;;;;;38.25;20.38;;;;;;;11.14;100.00;101782.88;4995682;28;20050;-79
2023/05/12 01:11:35;;;;;;;33.65;18.75;;;;;;;11.13;100.00;101781.97;4985889;28;20053;-80
2023/05/12 01:14:03;;;;;;;31.85;17.63;;;;;;;11.12;100.00;101774.94;4993784;28;20042;-80
2023/05/12 01:16:39;;;;;;;33.45;17.30;;;;;;;11.11;100.00;101773.16;4962507;28;20050;-80
2023/05/12 01:19:33;;;;;;;33.45;18.02;;;;;;;11.10;100.00;101769.63;5012441;28;20046;-80
2023/05/12 01:22:03;;;;;;;32.83;17.65;;;;;;;11.10;100.00;101763.47;4993527;28;20054;-79
2023/05/12 01:24:33;;;;;;;30.90;17.08;;;;;;;11.10;100.00;101766.13;4963852;28;20066;-80
2023/05/12 01:27:04;;;;;;;37.13;18.42;;;;;;;11.08;100.00;101767.84;4990487;28;20050;-80
2023/05/12 01:29:32;;;;;;;31.13;17.75;;;;;;;11.08;100.00;101767.84;4973118;28;20057;-79
2023/05/12 01:32:02;;;;;;;36.83;19.80;;;;;;;11.08;100.00;101760.81;4929543;28;20058;-80
2023/05/12 01:34:32;;;;;;;41.83;20.27;;;;;;;11.07;100.00;101771.34;4987352;28;20042;-80
2023/05/12 01:37:00;;;;;;;37.95;18.70;;;;;;;11.06;100.00;101767.81;4991377;28;20050;-80
2023/05/12 01:39:29;;;;;;;32.45;16.38;;;;;;;11.05;100.00;101766.03;4945420;28;20393;-80
2023/05/12 01:41:57;;;;;;;39.65;18.48;;;;;;;11.05;100.00;101771.31;4991190;28;20054;-81
2023/05/12 01:44:24;;;;;;;38.92;19.80;;;;;;;11.05;100.00;101762.53;4971222;28;20046;-80
2023/05/12 01:46:52;;;;;;;29.42;16.75;;;;;;;11.05;100.00;101763.41;4941761;28;20420;-80
2023/05/12 01:49:20;;;;;;;35.10;18.73;;;;;;;11.05;100.00;101775.69;4962840;28;20385;-80
2023/05/12 01:51:49;;;;;;;36.28;18.42;;;;;;;11.05;100.00;101771.31;4989079;28;20094;-80
2023/05/12 01:54:22;;;;;;;41.08;20.08;;;;;;;11.05;100.00;101775.69;4963366;28;20424;-81
2023/05/12 01:56:49;;;;;;;44.25;19.65;;;;;;;11.04;100.00;101779.19;4990650;28;20061;-80
2023/05/12 01:59:17;;;;;;;36.10;18.75;;;;;;;11.04;100.00;101782.75;4971663;28;20058;-81
2023/05/12 02:01:44;;;;;;;40.10;19.73;;;;;;;11.07;100.00;101787.16;4974442;28;20057;-80
2023/05/12 02:04:15;;;;;;;38.85;19.80;;;;;;;11.07;100.00;101781.88;4930337;28;20050;-80
2023/05/12 02:06:45;;;;;;;37.13;18.55;;;;;;;11.08;100.00;101783.69;4982506;28;20065;-80
2023/05/12 02:09:12;;;;;;;46.47;21.35;;;;;;;11.09;100.00;101791.59;4996695;28;20065;-80
2023/05/12 02:11:40;;;;;;;39.58;19.58;;;;;;;11.10;100.00;101789.88;4989483;28;20077;-81
2023/05/12 02:14:08;;;;;;;36.47;19.77;;;;;;;11.10;100.00;101790.75;4964952;28;20043;-80
2023/05/12 02:16:36;;;;;;;46.28;21.88;;;;;;;11.10;100.00;101788.09;4988293;28;20054;-81
2023/05/12 02:19:04;;;;;;;41.30;19.65;;;;;;;11.11;100.00;101786.34;4920236;28;20050;-80
2023/05/12 02:21:32;;;;;;;42.92;21.77;;;;;;;11.12;100.00;101785.50;4998474;28;20076;-80
2023/05/12 02:23:59;;;;;;;40.05;21.00;;;;;;;11.12;100.00;101790.78;4977433;28;20038;-80
2023/05/12 02:26:26;;;;;;;37.55;20.05;;;;;;;11.12;100.00;101793.41;5007286;28;20045;-81
2023/05/12 02:28:55;;;;;;;33.90;19.73;;;;;;;11.13;100.00;101795.16;4994446;28;20054;-80
2023/05/12 02:31:22;;;;;;;36.67;20.88;;;;;;;11.14;100.00;101793.44;4990107;28;20049;-80
2023/05/12 02:33:52;;;;;;;35.85;19.60;;;;;;;11.12;100.00;101794.28;4956524;28;20042;-80
2023/05/12 02:36:19;;;;;;;43.40;19.95;;;;;;;11.12;100.00;101801.31;5005201;28;20065;-81
2023/05/12 02:38:47;;;;;;;41.05;21.42;;;;;;;11.11;100.00;101792.53;5005687;28;20068;-80
2023/05/12 02:41:15;;;;;;;41.15;19.23;;;;;;;11.13;100.00;101797.81;4993044;28;20046;-80
2023/05/12 02:43:42;;;;;;;44.50;21.75;;;;;;;11.13;100.00;101792.53;4979546;28;20054;-80
2023/05/12 02:46:10;;;;;;;43.58;20.50;;;;;;;11.12;100.00;101791.66;5004049;28;20061;-80
2023/05/12 02:48:38;;;;;;;41.70;21.48;;;;;;;11.12;100.00;101801.31;4985512;28;20065;-79
2023/05/12 02:51:06;;;;;;;47.25;23.02;;;;;;;11.10;100.00;101788.09;4974639;28;20053;-81
2023/05/12 02:53:33;;;;;;;51.75;22.90;;;;;;;11.10;100.00;101798.66;5001645;28;20041;-81
2023/05/12 02:56:00;;;;;;;43.50;21.50;;;;;;;11.11;100.00;101799.53;4988549;28;20058;-80
2023/05/12 02:58:28;;;;;;;43.35;22.33;;;;;;;11.10;100.00;101801.28;4998753;28;20050;-81
2023/05/12 03:00:56;;;;;;;48.97;21.98;;;;;;;11.10;100.00;101801.28;5005724;28;20057;-79
2023/05/12 03:03:36;;;;;;;46.40;21.80;;;;;;;11.10;100.00;101797.78;4979829;28;20056;-79
2023/05/12 03:06:04;;;;;;;43.38;21.83;;;;;;;11.12;100.00;101802.19;4963115;28;20500;-80
2023/05/12 03:08:32;;;;;;;42.58;21.83;;;;;;;11.11;100.00;101812.72;4991928;28;20068;-80
2023/05/12 03:11:00;;;;;;;47.20;23.30;;;;;;;11.13;100.00;101803.09;4987619;28;20054;-79
2023/05/12 03:13:27;;;;;;;44.58;21.67;;;;;;;11.12;100.00;101796.06;4958285;28;20052;-79
2023/05/12 03:16:00;;;;;;;46.22;22.65;;;;;;;11.13;100.00;101797.81;5005397;28;20137;-79
2023/05/12 03:18:30;;;;;;;43.90;22.42;;;;;;;11.14;100.00;101794.31;4993409;28;20049;-79
2023/05/12 03:20:58;;;;;;;43.20;22.02;;;;;;;11.14;100.00;101799.59;4946545;28;20050;-79
2023/05/12 03:23:26;;;;;;;58.70;26.48;;;;;;;11.15;100.00;101803.13;4989051;28;20062;-80
2023/05/12 03:25:54;;;;;;;44.70;23.30;;;;;;;11.15;100.00;101796.06;4986302;28;20057;-79
2023/05/12 03:28:25;;;;;;;50.20;24.63;;;;;;;11.17;100.00;101807.56;4967726;28;20046;-79
2023/05/12 03:30:52;;;;;;;56.30;24.55;;;;;;;11.17;100.00;101807.56;4992113;28;20054;-79
2023/05/12 03:33:20;;;;;;;56.70;25.15;;;;;;;11.19;100.00;101815.47;4976787;28;20081;-79
2023/05/12 03:35:50;;;;;;;45.97;22.35;;;;;;;11.19;100.00;101815.47;4940441;28;20042;-80
2023/05/12 03:38:17;;;;;;;41.22;22.08;;;;;;;11.20;100.00;101818.16;5009845;28;20053;-79
2023/05/12 03:40:51;;;;;;;49.53;23.55;;;;;;;11.20;100.00;101817.28;4991366;28;20050;-79
2023/05/12 03:43:20;;;;;;;45.63;23.13;;;;;;;11.21;100.00;101822.59;4979873;28;20050;-79
2023/05/12 03:45:48;;;;;;;53.30;24.02;;;;;;;11.22;100.00;101820.81;5010041;28;20124;-78
2023/05/12 03:48:15;;;;;;;42.67;22.27;;;;;;;11.24;100.00;101827.00;5003873;28;20042;-79
2023/05/12 03:50:43;;;;;;;45.58;22.05;;;;;;;11.24;100.00;101830.53;4946393;28;20050;-79
2023/05/12 03:53:10;;;;;;;49.03;23.63;;;;;;;11.25;100.00;101829.69;5025545;28;20058;-80
2023/05/12 03:55:38;;;;;;;46.05;23.33;;;;;;;11.26;100.00;101834.06;5038844;28;20057;-78
2023/05/12 03:58:06;;;;;;;55.45;26.20;;;;;;;11.26;100.00;101826.16;5001870;28;20415;-80
2023/05/12 04:00:36;;;;;;;47.58;24.98;;;;;;;11.27;100.00;101822.66;5002663;28;20034;-79
2023/05/12 04:03:06;;;;;;;49.17;23.13;;;;;;;11.28;100.00;101828.81;4980448;28;20924;-78
2023/05/12 04:05:38;;;;;;;49.88;23.17;;;;;;;11.31;100.00;101826.25;4994372;28;20049;-79
2023/05/12 04:08:06;;;;;;;42.80;22.40;;;;;;;11.34;100.00;101822.75;4954387;28;20042;-79
2023/05/12 04:10:41;;;;;;;55.70;24.85;;;;;;;11.36;100.00;101821.03;4982809;28;20054;-79
2023/05/12 04:13:08;;;;;;;48.92;25.20;;;;;;;11.38;100.00;101820.22;5002323;28;20555;-79
2023/05/12 04:15:36;;;;;;;43.50;22.55;;;;;;;11.42;100.00;101823.78;5000114;28;20064;-80
2023/05/12 04:18:03;;;;;;;45.13;24.40;;;;;;;11.44;100.00;101824.69;5007619;28;20054;-80
2023/05/12 04:20:30;;;;;;;49.85;25.00;;;;;;;11.47;100.00;101830.00;4978423;28;20050;-80
2023/05/12 04:22:58;;;;;;;48.28;24.10;;;;;;;11.49;100.00;101836.19;4948434;28;20065;-80
2023/05/12 04:25:25;;;;;;;45.42;23.60;;;;;;;11.50;100.00;101830.94;5008362;28;20058;-80
2023/05/12 04:27:53;;;;;;;49.40;23.50;;;;;;;11.53;100.00;101835.41;4992930;28;20050;-80
2023/05/12 04:30:20;;;;;;;49.00;24.88;;;;;;;11.56;100.00;101837.19;4994607;28;20503;-80
2023/05/12 04:32:49;;;;;;;53.60;24.95;;;;;;;11.57;100.00;101846.84;4981109;28;20060;-80
2023/05/12 04:35:16;;;;;;;50.97;25.15;;;;;;;11.56;100.00;101840.69;4982827;28;20407;-81
2023/05/12 04:37:43;;;;;;;43.47;23.40;;;;;;;11.56;100.00;101843.34;4975575;28;20045;-80
2023/05/12 04:40:11;;;;;;;51.15;26.48;;;;;;;11.57;100.00;101838.94;4985899;28;20053;-79
2023/05/12 04:42:39;;;;;;;50.88;25.10;;;;;;;11.58;100.00;101838.09;4990870;28;20057;-80
2023/05/12 04:45:09;;;;;;;51.05;25.23;;;;;;;11.58;100.00;101832.81;5005131;28;20042;-80
2023/05/12 04:47:37;;;;;;;55.45;27.63;;;;;;;11.59;100.00;101840.75;4966802;28;20042;-80
2023/05/12 04:50:06;;;;;;;55.97;28.25;;;;;;;11.60;100.00;101839.00;4989362;28;20934;-81
2023/05/12 04:52:33;;;;;;;58.20;28.25;;;;;;;11.60;100.00;101839.88;5013631;28;20050;-81
2023/05/12 04:55:00;;;;;;;57.22;28.25;;;;;;;11.62;100.00;101846.06;4948833;28;20554;-80
2023/05/12 04:57:28;;;;;;;57.03;27.45;;;;;;;11.63;100.00;101844.34;4994166;28;20057;-78
2023/05/12 04:59:58;;;;;;;66.82;30.98;;;;;;;11.61;100.00;101844.31;5006872;28;20054;-81
2023/05/12 05:02:28;;;;;;;49.92;27.52;;;;;;;11.60;100.00;101853.06;4980731;28;20423;-82
2023/05/12 05:04:56;;;;;;;59.00;29.55;;;;;;;11.61;100.00;101859.28;4967298;28;20061;-81
2023/05/12 05:07:24;;;;;;;52.88;28.17;;;;;;;11.61;100.00;101861.91;4987891;28;20050;-81
2023/05/12 05:09:51;;;;;;;56.30;29.48;;;;;;;11.62;100.00;101863.66;4953249;28;20530;-82
2023/05/12 05:12:21;;;;;;;68.68;31.90;;;;;;;11.65;100.00;101855.81;4967561;28;20050;-81
2023/05/12 05:14:48;;;;;;;69.57;32.67;;;;;;;11.67;100.00;101860.22;4976861;28;20494;-82
2023/05/12 05:17:16;;;;;;;75.30;33.65;;;;;;;11.69;100.00;101870.81;5002242;28;20492;-81
2023/05/12 05:19:44;;;;;;;61.47;31.90;;;;;;;11.73;100.00;101871.75;4978903;28;20050;-81
2023/05/12 05:22:27;;;;;;;62.78;33.60;;;;;;;11.74;100.00;101871.78;4981718;28;20053;-82
2023/05/12 05:24:55;;;;;;;61.35;32.40;;;;;;;11.78;100.00;101880.66;4994354;28;20041;-82
2023/05/12 05:27:22;;;;;;;61.30;33.50;;;;;;;11.80;100.00;101876.28;4982208;28;20060;-82
2023/05/12 05:29:50;;;;;;;62.88;33.95;;;;;;;11.82;100.00;101882.47;4992010;28;20049;-82
2023/05/12 05:32:17;;;;;;;67.45;36.65;;;;;;;11.84;100.00;101880.72;4990929;28;20403;-83
2023/05/12 05:34:45;;;;;;;59.10;33.60;;;;;;;11.87;100.00;101884.31;4987703;28;20057;-85
2023/05/12 05:37:12;;;;;;;69.03;36.20;;;;;;;11.92;100.00;101887.03;4989029;28;20434;-79
2023/05/12 05:39:39;;;;;;;61.25;34.30;;;;;;;11.95;100.00;101876.50;4979794;28;20049;-78
2023/05/12 05:42:07;;;;;;;67.55;37.25;;;;;;;11.98;100.00;101876.53;4969196;28;20064;-81
2023/05/12 05:44:35;;;;;;;68.60;39.17;;;;;;;12.03;100.00;101888.06;5009376;28;20061;-81
2023/05/12 05:47:04;;;;;;;74.22;38.60;;;;;;;12.06;100.00;101888.13;4986326;28;20399;-81
2023/05/12 05:49:32;;;;;;;68.95;38.08;;;;;;;12.09;100.00;101882.84;4948108;28;20068;-81
2023/05/12 05:52:00;;;;;;;59.85;36.38;;;;;;;12.15;100.00;101889.09;4991853;28;20061;-81
2023/05/12 05:54:28;;;;;;;71.05;40.55;;;;;;;12.17;100.00;101892.66;4990204;28;20042;-81
2023/05/12 05:56:55;;;;;;;69.05;38.20;;;;;;;12.22;100.00;101898.88;4977903;28;20055;-80
2023/05/12 05:59:23;;;;;;;65.10;37.45;;;;;;;12.25;100.00;101901.59;4990065;28;20050;-80
2023/05/12 06:01:50;;;;;;;73.50;40.63;;;;;;;12.27;100.00;101898.09;5023650;28;20060;-84
2023/05/12 06:04:18;;;;;;;60.40;37.20;;;;;;;12.30;100.00;101897.22;4982353;28;20050;-81
2023/05/12 06:06:46;;;;;;;72.22;39.45;;;;;;;12.34;100.00;101901.66;5000254;28;20052;-83
2023/05/12 06:09:14;;;;;;;74.47;43.17;;;;;;;12.36;100.00;101907.91;5009011;28;20410;-79
2023/05/12 06:11:42;;;;;;;72.75;40.17;;;;;;;12.40;100.00;101907.06;4973889;28;20407;-79
2023/05/12 06:14:11;;;;;;;61.97;39.92;;;;;;;12.42;100.00;101915.91;4984234;28;20072;-80
2023/05/12 06:16:38;;;;;;;67.35;42.03;;;;;;;12.45;100.00;101915.03;4997022;28;20053;-79
2023/05/12 06:19:08;;;;;;;73.50;41.72;;;;;;;12.48;100.00;101920.38;5008037;28;20080;-79
2023/05/12 06:21:37;;;;;;;69.43;39.03;;;;;;;12.48;100.00;101915.97;5002585;28;20057;-81
2023/05/12 06:24:05;;;;;;;66.35;41.13;;;;;;;12.53;100.00;101928.34;5001391;28;20061;-80
2023/05/12 06:26:33;;;;;;;69.63;40.45;;;;;;;12.55;100.00;101931.91;5018084;28;20107;-81
2023/05/12 06:29:00;;;;;;;73.90;42.10;;;;;;;12.57;100.00;101930.16;4955578;28;20045;-80
2023/05/12 06:31:28;;;;;;;72.72;41.15;;;;;;;12.58;100.00;101935.47;4969351;28;20054;-81
2023/05/12 06:33:57;;;;;;;68.88;40.58;;;;;;;12.59;100.00;101931.97;4993402;28;20053;-80
2023/05/12 06:36:25;;;;;;;69.97;39.78;;;;;;;12.62;100.00;101944.31;4983277;28;20054;-80
2023/05/12 06:38:52;;;;;;;63.60;39.13;;;;;;;12.64;100.00;101937.31;4979579;28;20514;-81
2023/05/12 06:41:20;;;;;;;73.90;43.05;;;;;;;12.66;100.00;101939.13;5000881;28;20041;-79
2023/05/12 06:43:48;;;;;;;65.55;38.53;;;;;;;12.67;100.00;101934.69;4948136;28;20038;-81
2023/05/12 06:46:15;;;;;;;62.67;38.90;;;;;;;12.70;100.00;101940.00;4981040;28;20468;-81
2023/05/12 06:48:42;;;;;;;60.40;37.40;;;;;;;12.72;100.00;101938.31;5000629;28;20052;-81
2023/05/12 06:51:10;;;;;;;61.25;38.55;;;;;;;12.74;100.00;101940.94;4946511;28;20496;-78
2023/05/12 06:53:37;;;;;;;68.85;42.80;;;;;;;12.74;100.00;101952.44;5010089;28;20049;-81
2023/05/12 06:56:05;;;;;;;67.93;40.45;;;;;;;12.73;100.00;101955.94;5010725;28;20056;-81
2023/05/12 06:58:32;;;;;;;67.60;40.72;;;;;;;12.75;100.00;101958.59;4944274;28;20923;-81
2023/05/12 07:00:59;;;;;;;64.85;42.05;;;;;;;12.75;100.00;101955.94;4991291;28;20052;-80
2023/05/12 07:03:31;;;;;;;68.50;40.60;;;;;;;12.76;100.00;101963.00;4975182;28;20443;-80
2023/05/12 07:05:58;;;;;;;60.70;38.42;;;;;;;12.75;100.00;101962.13;4998192;28;20137;-80
2023/05/12 07:08:30;;;;;;;63.42;39.53;;;;;;;12.79;100.00;101952.47;5005894;28;20057;-80
2023/05/12 07:11:01;;;;;;;61.15;40.33;;;;;;;12.80;100.00;101957.78;4978423;28;20538;-80
2023/05/12 07:13:30;;;;;;;64.38;41.80;;;;;;;12.85;100.00;101963.09;5002851;28;20060;-80
2023/05/12 07:15:58;;;;;;;66.10;40.67;;;;;;;12.89;100.00;101956.97;4956761;28;20416;-80
2023/05/12 07:18:26;;;;;;;64.40;41.35;;;;;;;12.95;100.00;101956.16;4996083;28;20049;-80
2023/05/12 07:20:54;;;;;;;65.93;42.15;;;;;;;13.01;100.00;101965.06;4984050;28;20045;-80
2023/05/12 07:23:21;;;;;;;62.00;38.20;;;;;;;13.08;100.00;101960.75;4983695;28;20053;-80
2023/05/12 07:25:49;;;;;;;61.70;41.53;;;;;;;13.17;100.00;101952.88;4986215;28;20065;-80
2023/05/12 07:28:16;;;;;;;58.42;40.92;;;;;;;13.25;100.00;101967.09;5014931;28;20050;-79
2023/05/12 07:30:43;;;;;;;56.15;38.78;;;;;;;13.33;100.00;101961.03;4953158;28;20041;-79
2023/05/12 07:33:11;;;;;;;57.10;39.95;;;;;;;13.39;100.00;101971.66;4980218;28;20056;-78
2023/05/12 07:35:38;;;;;;;61.05;39.63;;;;;;;13.45;100.00;101971.72;4976539;28;20053;-79
2023/05/12 07:38:08;;;;;;;55.08;40.38;;;;;;;13.53;100.00;101969.13;4987058;28;20050;-79
2023/05/12 07:40:35;;;;;;;55.45;38.20;;;;;;;13.59;100.00;101971.81;5013836;28;20049;-80
2023/05/12 07:43:02;;;;;;;50.63;36.08;;;;;;;13.64;100.00;101963.03;4967569;28;20041;-79
2023/05/12 07:45:30;;;;;;;53.78;38.97;;;;;;;13.76;100.00;101966.66;4932307;28;20050;-80
2023/05/12 07:47:57;;;;;;;57.72;40.50;;;;;;;13.86;100.00;101968.53;4980746;28;20050;-79
2023/05/12 07:50:25;;;;;;;50.25;35.97;;;;;;;13.98;100.00;101968.59;4980438;28;20057;-79
2023/05/12 07:52:52;;;;;;;50.85;37.17;;;;;;;14.09;100.00;101970.47;5005991;28;20160;-80
2023/05/12 07:55:21;;;;;;;51.58;38.15;;;;;;;14.15;100.00;101973.16;4981987;28;20064;-80
2023/05/12 07:57:49;;;;;;;50.22;37.28;;;;;;;14.20;100.00;101984.66;5016428;28;20410;-79
2023/05/12 08:00:17;;;;;;;46.38;33.78;;;;;;;14.30;100.00;101981.19;4997115;28;20050;-79
2023/05/12 08:02:45;;;;;;;50.22;36.13;;;;;;;14.42;100.00;101980.34;4969702;28;20053;-80
2023/05/12 08:05:14;;;;;;;55.75;37.45;;;;;;;14.56;100.00;101980.44;4979064;28;20053;-79
2023/05/12 08:07:42;;;;;;;46.92;34.72;;;;;;;14.65;100.00;101975.22;5008015;28;20045;-80
2023/05/12 08:10:11;;;;;;;48.10;35.63;;;;;;;14.75;100.00;101979.69;5023413;28;20048;-80
2023/05/12 08:12:40;;;;;;;51.40;36.72;;;;;;;14.82;100.00;101981.47;5000976;28;20053;-79
2023/05/12 08:15:08;;;;;;;42.10;32.22;;;;;;;14.94;100.00;101977.09;4990407;28;20046;-79
2023/05/12 08:17:35;;;;;;;45.33;33.47;;;;;;;15.12;100.00;101981.53;4980256;28;20045;-80
2023/05/12 08:20:04;;;;;;;47.10;35.22;;;;;;;15.28;100.00;101985.16;4997073;28;20050;-77
2023/05/12 08:22:31;;;;;;;46.08;34.38;;;;;;;15.39;100.00;101992.22;5003486;28;20069;-78
2023/05/12 08:24:58;;;;;;;40.25;31.83;;;;;;;15.44;100.00;101991.34;4993065;28;20049;-78
2023/05/12 08:27:26;;;;;;;43.53;32.65;;;;;;;15.45;100.00;101985.16;4973436;28;20537;-79
2023/05/12 08:29:53;;;;;;;38.45;28.90;;;;;;;15.44;100.00;101994.88;5022895;28;20056;-79
2023/05/12 08:32:23;;;;;;;38.55;30.30;;;;;;;15.47;100.00;101996.69;4961649;28;20049;-79
2023/05/12 08:34:50;;;;;;;36.97;29.50;;;;;;;15.54;100.00;101996.69;5004061;28;20049;-78
2023/05/12 08:37:18;;;;;;;41.03;30.38;;;;;;;15.69;100.00;101993.16;4982138;28;20080;-79
2023/05/12 08:39:45;;;;;;;38.85;32.40;;;;;;;15.81;100.00;101983.44;5016464;28;20089;-80
2023/05/12 08:42:33;;;;;;;37.35;30.38;;;;;;;15.90;100.00;101988.75;4984063;28;20491;-79
2023/05/12 08:45:02;;;;;;;39.83;32.55;;;;;;;16.04;100.00;102000.25;5003141;28;20046;-79
2023/05/12 08:47:32;;;;;;;38.00;31.55;;;;;;;16.05;100.00;101991.41;4971248;28;20057;-80
2023/05/12 08:50:02;;;;;;;37.55;30.60;;;;;;;16.13;100.00;101992.25;5011448;28;20054;-79
2023/05/12 08:52:34;;;;;;;35.90;29.52;;;;;;;16.21;100.00;102002.00;4985336;28;20072;-79
2023/05/12 08:55:03;;;;;;;35.15;28.83;;;;;;;16.30;100.00;101996.66;4994778;28;20046;-79
2023/05/12 08:57:31;;;;;;;35.13;27.48;;;;;;;16.43;100.00;102005.50;5009797;28;20049;-79
2023/05/12 09:00:03;;;;;;;36.78;27.88;;;;;;;16.53;100.00;102009.91;5000636;28;20056;-79
2023/05/12 09:02:31;;;;;;;38.22;28.90;;;;;;;16.66;100.00;102011.63;4951651;28;20518;-79
2023/05/12 09:05:14;;;;;;;29.15;26.05;;;;;;;16.70;100.00;102004.53;4993484;28;20041;-79
2023/05/12 09:07:46;;;;;;;31.80;26.15;;;;;;;16.74;100.00;102015.13;4987067;28;20049;-79
2023/05/12 09:10:17;;;;;;;32.85;24.88;;;;;;;16.77;100.00;102009.81;5014412;28;20057;-79
2023/05/12 09:13:21;;;;;;;32.13;25.60;;;;;;;16.81;100.00;102017.81;5011520;28;20053;-79
2023/05/12 09:15:52;;;;;;;29.38;25.05;;;;;;;16.86;100.00;102018.69;5020924;28;20042;-80
2023/05/12 09:18:20;;;;;;;28.38;22.58;;;;;;;17.00;100.00;102024.84;4966547;28;20049;-79
2023/05/12 09:20:47;;;;;;;27.40;23.55;;;;;;;17.13;100.00;102028.34;4993513;28;20058;-80
2023/05/12 09:23:17;;;;;;;25.50;21.38;;;;;;;17.19;100.00;102022.97;4994090;28;20061;-79
2023/05/12 09:25:48;;;;;;;26.50;22.57;;;;;;;17.28;100.00;102032.69;5012595;28;21909;-79
2023/05/12 09:28:16;;;;;;;;;;;;;;;17.35;100.00;102023.75;5006422;28;20061;-80
2023/05/12 09:30:43;;;;;;;22.75;18.25;;;;;;;17.41;100.00;102028.16;4986946;28;19929;-80
2023/05/12 09:33:11;;;;;;;20.30;18.17;;;;;;;17.48;100.00;102022.78;4975783;28;20645;-79
2023/05/12 09:35:43;;;;;;;20.77;17.55;;;;;;;17.48;100.00;102025.44;4991815;28;20054;-79
2023/05/12 09:38:13;;;;;;;27.80;17.92;;;;;;;17.50;100.00;102033.44;4991568;28;20050;-79
2023/05/12 09:40:44;;;;;;;22.20;18.50;;;;;;;17.40;100.00;102019.28;5007419;28;20045;-80
2023/05/12 09:43:11;;;;;;;22.23;17.48;;;;;;;17.44;100.00;102013.03;4984159;28;20060;-79
2023/05/12 09:45:42;;;;;;;19.85;17.05;;;;;;;17.52;100.00;102021.88;5001161;28;20048;-79
2023/05/12 09:48:11;;;;;;;20.83;17.13;;;;;;;17.58;100.00;102020.03;4973494;28;20053;-80
2023/05/12 09:50:44;;;;;;;18.88;16.45;;;;;;;17.68;100.00;102021.75;4949160;28;20057;-79
2023/05/12 09:53:16;;;;;;;18.55;16.55;;;;;;;17.74;100.00;102021.72;4993636;28;20053;-80
2023/05/12 09:55:45;;;;;;;18.92;16.35;;;;;;;17.81;100.00;102028.75;4984646;28;20054;-78
2023/05/12 09:58:18;;;;;;;17.40;15.45;;;;;;;17.97;100.00;102023.34;4990032;28;20400;-80
2023/05/12 10:00:46;;;;;;;18.70;16.80;;;;;;;18.13;100.00;102022.31;4997239;28;20054;-80
2023/05/12 10:03:17;;;;;;;16.77;14.98;;;;;;;18.30;100.00;102017.69;4988769;28;20066;-79
2023/05/12 10:06:00;;;;;;;17.38;15.32;;;;;;;18.47;100.00;102027.28;4985862;28;20057;-79
2023/05/12 10:08:41;;;;;;;21.75;16.75;;;;;;;18.56;100.00;102036.97;5025892;28;20431;-80
2023/05/12 10:11:08;;;;;;;17.42;13.93;;;;;;;18.54;100.00;102033.44;5004746;28;20041;-79
2023/05/12 10:13:37;;;;;;;17.00;15.13;;;;;;;18.46;100.00;102041.53;4988566;28;20061;-80
2023/05/12 10:16:05;;;;;;;15.10;13.18;;;;;;;18.43;100.00;102031.78;5021179;28;20029;-79
2023/05/12 10:18:33;;;;;;;17.52;15.00;;;;;;;18.46;100.00;102038.84;4997968;28;20047;-81
2023/05/12 10:21:02;;;;;;;17.08;14.82;;;;;;;18.49;100.00;102030.81;4974974;28;20057;-80
2023/05/12 10:23:30;;;;;;;13.90;12.50;;;;;;;18.55;100.00;102030.75;4992811;28;20057;-80
2023/05/12 10:26:00;;;;;;;15.27;12.30;;;;;;;18.64;100.00;102022.63;4983647;28;20049;-80
2023/05/12 10:28:33;;;;;;;12.82;11.63;;;;;;;18.72;100.00;102035.03;4985501;28;20042;-80
2023/05/12 10:31:02;;;;;;;12.82;10.80;;;;;;;18.84;100.00;102029.56;5002624;28;20049;-80
2023/05/12 10:33:29;;;;;;;12.55;10.93;;;;;;;18.98;100.00;102029.38;5006808;28;20042;-80
2023/05/12 10:35:58;;;;;;;11.43;10.35;;;;;;;19.07;100.00;102027.47;4959124;28;20076;-80
2023/05/12 10:38:26;;;;;;;11.77;10.63;;;;;;;19.15;100.00;102021.13;5027628;28;20045;-80
2023/05/12 10:40:57;;;;;;;10.80;9.70;;;;;;;19.27;100.00;102019.16;4992341;28;20054;-80
2023/05/12 10:43:37;;;;;;;13.32;10.48;;;;;;;19.37;100.00;102024.38;4996394;28;20056;-80
2023/05/12 10:46:25;;;;;;;8.90;7.88;;;;;;;19.44;100.00;102021.59;4989710;28;20049;-80
2023/05/12 10:49:04;;;;;;;9.48;7.93;;;;;;;19.54;100.00;102026.81;4998073;28;20049;-80
2023/05/12 10:51:53;;;;;;;8.98;7.97;;;;;;;19.61;100.00;102029.34;4963321;28;20391;-79
2023/05/12 10:54:24;;;;;;;10.10;9.07;;;;;;;19.70;100.00;102022.09;5024875;28;20050;-81
2023/05/12 10:56:56;;;;;;;11.27;8.80;;;;;;;19.77;100.00;102021.13;5000463;28;20041;-78
2023/05/12 10:59:25;;;;;;;8.57;7.57;;;;;;;19.85;100.00;102022.75;4981826;28;20624;-81
2023/05/12 11:01:59;;;;;;;8.67;7.70;;;;;;;19.92;100.00;102019.97;4996696;28;20041;-78
2023/05/12 11:04:36;;;;;;;9.52;8.23;;;;;;;20.00;100.00;102026.97;5036431;28;20319;-79
2023/05/12 11:07:06;;;;;;;8.32;7.57;;;;;;;20.08;100.00;102024.16;4949765;28;20052;-79
2023/05/12 11:09:38;;;;;;;8.52;7.75;;;;;;;20.15;100.00;102019.56;4987457;28;20065;-79
2023/05/12 11:12:16;;;;;;;9.05;7.43;;;;;;;20.20;100.00;102013.22;5013607;28;20054;-79